KMGN

Harbor Springs Airport

Harbor Springs, Michigan, USA
METAR KMGN 210515Z AUTO 06003KT 10SM CLR 20/16 A2994 RMK AO2 T02070168
Observed Flight Rules
Aug-21 @ 05:15 UTC (9 hours ago) Visual Flight Rules
Wind Visibility Clouds
60° at 3 knots 10 miles
  • Clear skies
Temperatures Readings
Current 21°C / 70°F
Dewpoint 17°C / 63°F
Humidity 78%
Altimeter 29.94" Hg
Pressure 1014 hPa
Elevation 209
METAR KMGN 210515Z AUTO 06003KT 10SM CLR 20/16 A2994 RMK AO2 T02070168
Observed Flight Rules
Aug-21 @ 05:15 UTC
(9 hours ago)
VFR
Wind Visibility
60° at 3 knots 10 miles
Clouds
  • Clear skies
Temperature Dewpoint
21°C / 70°F 17°C / 63°F
Humidity Altimeter Pressure
78% 29.94" Hg 1014 hPa